createdAt,value
2017-10-14T00:00:19.639Z,50.89
2017-10-14T00:01:19.573Z,49.55
2017-10-14T00:02:19.562Z,49.55
2017-10-14T00:03:19.214Z,49.65
2017-10-14T00:04:19.209Z,49.45
2017-10-14T00:05:19.536Z,49.74
2017-10-14T00:06:19.516Z,49.91
2017-10-14T00:07:19.503Z,48.49
2017-10-14T00:08:19.152Z,48.11
2017-10-14T00:09:19.141Z,48.21
2017-10-14T00:10:19.128Z,48.21
2017-10-14T00:11:19.452Z,47.92
2017-10-14T00:12:19.434Z,48.21
2017-10-14T00:13:19.091Z,46.96
2017-10-14T00:14:19.083Z,47.63
2017-10-14T00:15:19.068Z,47.99
2017-10-14T00:16:19.389Z,48.02
2017-10-14T00:17:19.383Z,47.73
2017-10-14T00:18:19.365Z,47.61
2017-10-14T00:19:19.354Z,47.63
2017-10-14T00:20:19.003Z,47.03
2017-10-14T00:21:19.323Z,46.86
2017-10-14T00:22:19.317Z,46.84
2017-10-14T00:23:18.963Z,47.03
2017-10-14T00:24:19.155Z,46.86
2017-10-14T00:25:19.276Z,46.96
2017-10-14T00:26:18.927Z,46.65
2017-10-14T00:27:19.246Z,46.67
2017-10-14T00:28:18.902Z,46.58
2017-10-14T00:29:18.889Z,47.06
2017-10-14T00:30:19.210Z,46.77
2017-10-14T00:31:19.205Z,47.25
2017-10-14T00:32:18.853Z,46.86
2017-10-14T00:33:19.179Z,46.77
2017-10-14T00:34:18.831Z,46.39
2017-10-14T00:35:19.148Z,47.13
2017-10-14T00:36:19.139Z,47.44
2017-10-14T00:37:19.132Z,47.63
2017-10-14T00:38:19.115Z,47.82
2017-10-14T00:39:18.764Z,48.02
2017-10-14T00:40:19.087Z,48.4
2017-10-14T00:41:19.072Z,49.07
2017-10-14T00:42:18.726Z,48.49
2017-10-14T00:43:19.059Z,49.07
2017-10-14T00:44:18.702Z,48.97
2017-10-14T00:45:19.036Z,49.16
2017-10-14T00:46:19.013Z,48.97
2017-10-14T00:47:19.001Z,48.88
2017-10-14T00:48:18.653Z,49.16
2017-10-14T00:49:18.974Z,49.07
2017-10-14T00:50:18.628Z,49.36
2017-10-14T00:51:18.948Z,49.45
2017-10-14T00:52:18.606Z,49.16
2017-10-14T00:53:18.936Z,49.26
2017-10-14T00:54:18.915Z,49.45
2017-10-14T00:55:18.565Z,49.36
2017-10-14T00:56:18.552Z,48.88
2017-10-14T00:57:18.879Z,49.07
2017-10-14T00:58:18.860Z,49.26
2017-10-14T00:59:18.529Z,48.97
2017-10-14T01:00:18.838Z,48.88
2017-10-14T01:01:18.493Z,48.97
2017-10-14T01:02:18.814Z,49.07
2017-10-14T01:03:18.803Z,49.07
2017-10-14T01:04:18.456Z,49.07
2017-10-14T01:05:18.439Z,48.4
2017-10-14T01:06:18.767Z,48.21
2017-10-14T01:07:18.418Z,48.59
2017-10-14T01:08:18.404Z,48.3
2017-10-14T01:09:18.730Z,47.92
2017-10-14T01:10:18.379Z,47.82
2017-10-14T01:11:18.365Z,47.82
2017-10-14T01:12:18.353Z,47.82
2017-10-14T01:13:18.343Z,47.63
2017-10-14T01:14:18.345Z,47.53
2017-10-14T01:15:18.652Z,47.53
2017-10-14T01:16:18.646Z,48.02
2017-10-14T01:17:18.626Z,47.44
2017-10-14T01:18:18.612Z,47.63
2017-10-14T01:19:18.266Z,47.63
2017-10-14T01:20:18.589Z,47.06
2017-10-14T01:21:18.625Z,46.86
2017-10-14T01:22:18.571Z,47.06
2017-10-14T01:23:18.560Z,47.15
2017-10-14T01:24:18.203Z,47.34
2017-10-14T01:25:18.525Z,46.86
2017-10-14T01:26:18.516Z,47.06
2017-10-14T01:27:18.164Z,46.77
2017-10-14T01:28:18.488Z,47.82
2017-10-14T01:29:18.140Z,47.34
2017-10-14T01:30:18.128Z,47.34
2017-10-14T01:31:18.120Z,47.92
2017-10-14T01:32:18.100Z,47.34
2017-10-14T01:33:18.089Z,47.73
2017-10-14T01:34:18.421Z,46.86
2017-10-14T01:35:18.065Z,46.58
2017-10-14T01:36:18.389Z,46.77
2017-10-14T01:37:18.375Z,46.39
2017-10-14T01:38:18.363Z,46.77
2017-10-14T01:39:18.353Z,46.19
2017-10-14T01:40:18.006Z,46.86
2017-10-14T01:41:18.011Z,46.86
2017-10-14T01:42:17.979Z,46.96
2017-10-14T01:43:18.303Z,46.48
2017-10-14T01:44:18.290Z,46.39
2017-10-14T01:45:17.941Z,46.96
2017-10-14T01:46:17.931Z,46.77
2017-10-14T01:47:18.258Z,46.96
2017-10-14T01:48:17.903Z,47.25
2017-10-14T01:49:18.222Z,46.67
2017-10-14T01:50:18.215Z,46.77
2017-10-14T01:51:18.202Z,46.77
2017-10-14T01:52:17.853Z,46.96
2017-10-14T01:53:18.177Z,46.58
2017-10-14T01:54:17.828Z,46.48
2017-10-14T01:55:18.149Z,46.67
2017-10-14T01:56:18.135Z,46.48
2017-10-14T01:57:18.124Z,45.9
2017-10-14T01:58:17.785Z,45.43
2017-10-14T01:59:18.100Z,45.72
2017-10-14T02:00:18.087Z,46.29
2017-10-14T02:01:17.741Z,46.19
2017-10-14T02:02:17.730Z,45.9
2017-10-14T02:03:18.051Z,45.62
2017-10-14T02:04:18.041Z,45.62
2017-10-14T02:05:18.024Z,45.9
2017-10-14T02:06:17.683Z,45.9
2017-10-14T02:07:18.000Z,46.19
2017-10-14T02:08:17.655Z,45.9
2017-10-14T02:09:17.643Z,45.9
2017-10-14T02:10:17.980Z,45.72
2017-10-14T02:11:17.616Z,45.52
2017-10-14T02:12:17.602Z,45.14
2017-10-14T02:13:17.922Z,45.04
2017-10-14T02:14:17.580Z,44.95
2017-10-14T02:15:17.903Z,45.23
2017-10-14T02:16:17.554Z,44.76
2017-10-14T02:17:17.883Z,45.04
2017-10-14T02:18:17.526Z,44.64
2017-10-14T02:19:17.853Z,44.83
2017-10-14T02:20:17.839Z,44.64
2017-10-14T02:21:17.492Z,44.54
2017-10-14T02:22:17.480Z,44.16
2017-10-14T02:23:17.795Z,43.97
2017-10-14T02:24:17.670Z,43.97
2017-10-14T02:25:17.441Z,43.1
2017-10-14T02:26:17.761Z,43.68
2017-10-14T02:27:17.418Z,43.68
2017-10-14T02:28:17.407Z,43.01
2017-10-14T02:29:17.722Z,43.49
2017-10-14T02:30:17.708Z,43.2
2017-10-14T02:31:17.699Z,43.01
2017-10-14T02:32:17.733Z,42.91
2017-10-14T02:33:17.344Z,43.3
2017-10-14T02:34:17.666Z,42.05
2017-10-14T02:35:17.652Z,41.28
2017-10-14T02:36:17.635Z,41.48
2017-10-14T02:37:17.623Z,41.48
2017-10-14T02:38:17.276Z,41.77
2017-10-14T02:39:17.603Z,41.67
2017-10-14T02:40:17.587Z,41.38
2017-10-14T02:41:17.575Z,41.19
2017-10-14T02:42:17.560Z,40.61
2017-10-14T02:43:17.546Z,40.52
2017-10-14T02:44:17.201Z,40.9
2017-10-14T02:45:17.186Z,40.9
2017-10-14T02:46:17.173Z,40.52
2017-10-14T02:47:17.163Z,41.19
2017-10-14T02:48:17.154Z,41.19
2017-10-14T02:49:17.471Z,41.09
2017-10-14T02:50:17.128Z,40.33
2017-10-14T02:51:17.109Z,40.14
2017-10-14T02:52:17.096Z,41
2017-10-14T02:53:17.429Z,40.42
2017-10-14T02:54:17.409Z,40.42
2017-10-14T02:55:17.395Z,41
2017-10-14T02:56:17.045Z,40.23
2017-10-14T02:57:17.032Z,40.14
2017-10-14T02:58:17.354Z,40.71
2017-10-14T02:59:17.007Z,40.33
2017-10-14T03:00:17.329Z,39.37
2017-10-14T03:01:17.326Z,39.37
2017-10-14T03:02:16.974Z,39.56
2017-10-14T03:03:17.289Z,39.85
2017-10-14T03:04:17.275Z,39.94
2017-10-14T03:05:17.271Z,38.98
2017-10-14T03:06:16.917Z,39.65
2017-10-14T03:07:17.242Z,39.37
2017-10-14T03:08:17.233Z,39.65
2017-10-14T03:09:16.879Z,39.85
2017-10-14T03:10:17.205Z,40.23
2017-10-14T03:11:16.852Z,40.33
2017-10-14T03:12:17.172Z,40.14
2017-10-14T03:13:16.828Z,39.37
2017-10-14T03:14:17.148Z,39.47
2017-10-14T03:15:17.135Z,39.75
2017-10-14T03:16:16.791Z,39.18
2017-10-14T03:17:17.110Z,39.08
2017-10-14T03:18:16.761Z,38.89
2017-10-14T03:19:17.083Z,38.49
2017-10-14T03:20:16.737Z,38.3
2017-10-14T03:21:17.062Z,38.3
2017-10-14T03:22:17.042Z,37.65
2017-10-14T03:23:17.036Z,37.72
2017-10-14T03:24:17.019Z,37.72
2017-10-14T03:25:16.672Z,37.74
2017-10-14T03:26:16.989Z,37.72
2017-10-14T03:27:16.979Z,38.01
2017-10-14T03:28:16.633Z,37.82
2017-10-14T03:29:16.620Z,37.43
2017-10-14T03:30:16.944Z,37.92
2017-10-14T03:31:16.596Z,37.82
2017-10-14T03:32:16.918Z,37.82
2017-10-14T03:33:16.956Z,38.1
2017-10-14T03:34:16.554Z,37.82
2017-10-14T03:35:16.876Z,37.92
2017-10-14T03:36:16.530Z,37.05
2017-10-14T03:37:16.523Z,36.67
2017-10-14T03:38:16.502Z,37.34
2017-10-14T03:39:16.497Z,37.15
2017-10-14T03:40:16.810Z,37.05
2017-10-14T03:41:16.798Z,36.47
2017-10-14T03:42:16.811Z,37.34
2017-10-14T03:43:16.438Z,37.82
2017-10-14T03:44:16.427Z,37.15
2017-10-14T03:45:16.414Z,36.67
2017-10-14T03:46:16.402Z,37.15
2017-10-14T03:47:16.720Z,36.47
2017-10-14T03:48:16.373Z,36.67
2017-10-14T03:49:16.702Z,37.24
2017-10-14T03:50:16.684Z,37.15
2017-10-14T03:51:16.338Z,36.57
2017-10-14T03:52:16.323Z,36.29
2017-10-14T03:53:16.652Z,36.57
2017-10-14T03:54:16.297Z,36.29
2017-10-14T03:55:16.624Z,36.29
2017-10-14T03:56:16.271Z,36.29
2017-10-14T03:57:16.593Z,36.29
2017-10-14T03:58:16.246Z,35.9
2017-10-14T03:59:16.229Z,36.19
2017-10-14T04:00:16.551Z,36.19
2017-10-14T04:01:16.536Z,36.1
2017-10-14T04:02:16.524Z,36.19
2017-10-14T04:03:16.516Z,35.71
2017-10-14T04:04:16.165Z,35.52
2017-10-14T04:05:16.492Z,35.04
2017-10-14T04:06:16.488Z,35.33
2017-10-14T04:07:16.468Z,35.42
2017-10-14T04:08:16.113Z,35.14
2017-10-14T04:09:16.434Z,34.37
2017-10-14T04:10:16.089Z,34.28
2017-10-14T04:11:16.407Z,34.37
2017-10-14T04:12:16.399Z,33.51
2017-10-14T04:13:16.049Z,33.89
2017-10-14T04:14:16.371Z,33.89
2017-10-14T04:15:16.026Z,34.37
2017-10-14T04:16:16.008Z,34.08
2017-10-14T04:17:16.005Z,33.8
2017-10-14T04:18:15.982Z,32.93
2017-10-14T04:19:15.971Z,33.32
2017-10-14T04:20:15.954Z,33.12
2017-10-14T04:21:15.944Z,32.93
2017-10-14T04:22:15.932Z,33.49
2017-10-14T04:23:15.919Z,33.7
2017-10-14T04:24:16.437Z,33.11
2017-10-14T04:25:16.226Z,33.11
2017-10-14T04:26:16.222Z,33.12
2017-10-14T04:27:15.869Z,32.44
2017-10-14T04:28:16.187Z,32.73
2017-10-14T04:29:15.893Z,32.06
2017-10-14T04:30:15.829Z,32.84
2017-10-14T04:31:16.146Z,33.01
2017-10-14T04:32:15.806Z,32.75
2017-10-14T04:33:16.117Z,32.75
2017-10-14T04:34:15.774Z,32.82
2017-10-14T04:35:16.097Z,32.84
2017-10-14T04:36:16.079Z,32.93
2017-10-14T04:37:15.734Z,32.84
2017-10-14T04:38:16.055Z,32.82
2017-10-14T04:39:16.042Z,32.65
2017-10-14T04:40:15.696Z,32.73
2017-10-14T04:41:15.686Z,32.82
2017-10-14T04:42:16.004Z,32.55
2017-10-14T04:43:15.655Z,32.06
2017-10-14T04:44:15.988Z,32.25
2017-10-14T04:45:15.974Z,31.58
2017-10-14T04:46:15.948Z,31.2
2017-10-14T04:47:15.603Z,31.67
2017-10-14T04:48:15.939Z,31.2
2017-10-14T04:49:15.911Z,31.2
2017-10-14T04:50:15.893Z,30.91
2017-10-14T04:51:15.882Z,30.91
2017-10-14T04:52:15.868Z,30.43
2017-10-14T04:53:15.857Z,30.43
2017-10-14T04:54:15.907Z,29.95
2017-10-14T04:55:15.496Z,30.33
2017-10-14T04:56:15.817Z,30.15
2017-10-14T04:57:15.476Z,31.01
2017-10-14T04:58:15.459Z,30.52
2017-10-14T04:59:15.777Z,30.91
2017-10-14T05:00:15.431Z,29.57
2017-10-14T05:01:15.416Z,28.8
2017-10-14T05:02:15.406Z,29.19
2017-10-14T05:03:15.390Z,29.95
2017-10-14T05:04:15.377Z,29.66
2017-10-14T05:05:15.697Z,29.95
2017-10-14T05:06:15.689Z,30.15
2017-10-14T05:07:15.672Z,29.95
2017-10-14T05:08:15.661Z,30.24
2017-10-14T05:09:15.644Z,30.05
2017-10-14T05:10:15.630Z,29.47
2017-10-14T05:11:15.285Z,29.76
2017-10-14T05:12:15.609Z,29.95
2017-10-14T05:13:15.258Z,30.05
2017-10-14T05:14:15.245Z,29.95
2017-10-14T05:15:15.231Z,30.43
2017-10-14T05:16:15.554Z,30.43
2017-10-14T05:17:15.537Z,30.52
2017-10-14T05:18:15.529Z,31.01
2017-10-14T05:19:15.509Z,30.33
2017-10-14T05:20:15.499Z,30.43
2017-10-14T05:21:15.150Z,30.33
2017-10-14T05:22:15.478Z,30.52
2017-10-14T05:23:15.126Z,30.43
2017-10-14T05:24:15.108Z,30.15
2017-10-14T05:25:15.104Z,30.15
2017-10-14T05:26:15.086Z,29.95
2017-10-14T05:27:15.410Z,29.95
2017-10-14T05:28:15.392Z,29.95
2017-10-14T05:29:15.048Z,29.95
2017-10-14T05:30:15.369Z,30.15
2017-10-14T05:31:15.020Z,30.81
2017-10-14T05:32:15.005Z,31.29
2017-10-14T05:33:15.325Z,30.81
2017-10-14T05:34:14.977Z,30.91
2017-10-14T05:35:15.014Z,30.52
2017-10-14T05:36:14.953Z,30.43
2017-10-14T05:37:14.937Z,30.33
2017-10-14T05:38:14.926Z,30.05
2017-10-14T05:39:15.247Z,30.91
2017-10-14T05:40:15.239Z,30.62
2017-10-14T05:41:15.223Z,30.43
2017-10-14T05:42:14.872Z,30.81
2017-10-14T05:43:15.193Z,30.91
2017-10-14T05:44:14.844Z,31.01
2017-10-14T05:45:14.842Z,30.72
2017-10-14T05:46:14.817Z,30.81
2017-10-14T05:47:14.806Z,31.01
2017-10-14T05:48:14.796Z,30.81
2017-10-14T05:49:15.117Z,30.05
2017-10-14T05:50:14.764Z,29.76
2017-10-14T05:51:15.098Z,30.24
2017-10-14T05:52:15.072Z,30.52
2017-10-14T05:53:14.725Z,29.95
2017-10-14T05:54:15.046Z,29.76
2017-10-14T05:55:14.697Z,29.86
2017-10-14T05:56:14.686Z,29.76
2017-10-14T05:57:14.675Z,29.86
2017-10-14T05:58:14.656Z,29.66
2017-10-14T05:59:14.643Z,29.86
2017-10-14T06:00:14.633Z,29.28
2017-10-14T06:01:14.616Z,29.28
2017-10-14T06:02:14.941Z,28.8
2017-10-14T06:03:14.593Z,29.28
2017-10-14T06:04:14.917Z,28.99
2017-10-14T06:05:14.564Z,29.38
2017-10-14T06:06:14.562Z,28.99
2017-10-14T06:07:14.874Z,29.28
2017-10-14T06:08:14.523Z,29.66
2017-10-14T06:09:14.511Z,28.9
2017-10-14T06:10:14.828Z,28.9
2017-10-14T06:11:14.817Z,29.09
2017-10-14T06:12:14.805Z,28.9
2017-10-14T06:13:14.457Z,29.28
2017-10-14T06:14:14.441Z,28.8
2017-10-14T06:15:14.762Z,29.09
2017-10-14T06:16:14.422Z,28.9
2017-10-14T06:17:14.732Z,28.9
2017-10-14T06:18:14.733Z,29.47
2017-10-14T06:19:14.375Z,29.57
2017-10-14T06:20:14.359Z,29.09
2017-10-14T06:21:14.345Z,28.7
2017-10-14T06:22:14.353Z,28.8
2017-10-14T06:23:14.652Z,28.8
2017-10-14T06:24:14.647Z,29.28
2017-10-14T06:25:14.294Z,28.99
2017-10-14T06:26:14.618Z,28.8
2017-10-14T06:27:14.601Z,28.8
2017-10-14T06:28:14.635Z,28.8
2017-10-14T06:29:14.577Z,28.99
2017-10-14T06:30:14.274Z,29.47
2017-10-14T06:31:14.214Z,29.95
2017-10-14T06:32:14.543Z,30.05
2017-10-14T06:33:14.525Z,30.43
2017-10-14T06:34:14.181Z,29.95
2017-10-14T06:35:14.159Z,29.86
2017-10-14T06:36:14.558Z,29.86
2017-10-14T06:37:14.467Z,29.87
2017-10-14T06:38:14.461Z,30.15
2017-10-14T06:39:14.102Z,30.05
2017-10-14T06:40:14.440Z,29.95
2017-10-14T06:41:14.078Z,29.95
2017-10-14T06:42:14.409Z,29.77
2017-10-14T06:43:14.052Z,29.87
2017-10-14T06:44:14.044Z,29.87
2017-10-14T06:45:14.026Z,30.43
2017-10-14T06:46:14.374Z,30.33
2017-10-14T06:47:14.004Z,30.44
2017-10-14T06:48:14.320Z,30.26
2017-10-14T06:49:14.305Z,30.54
2017-10-14T06:50:13.957Z,30.64
2017-10-14T06:51:14.282Z,30.83
2017-10-14T06:52:13.933Z,31.21
2017-10-14T06:53:13.919Z,31.3
2017-10-14T06:54:13.908Z,31.5
2017-10-14T06:55:14.226Z,31.69
2017-10-14T06:56:14.216Z,32.26
2017-10-14T06:57:14.202Z,32.75
2017-10-14T06:58:13.852Z,31.98
2017-10-14T06:59:13.841Z,31.98
2017-10-14T07:00:14.166Z,32.65
2017-10-14T07:01:14.153Z,32.36
2017-10-14T07:02:14.135Z,32.65
2017-10-14T07:03:14.122Z,32.84
2017-10-14T07:04:13.781Z,33.32
2017-10-14T07:05:14.095Z,32.93
2017-10-14T07:06:14.092Z,32.84
2017-10-14T07:07:14.069Z,33.12
2017-10-14T07:08:14.082Z,33.41
2017-10-14T07:09:13.708Z,33.89
2017-10-14T07:10:14.050Z,33.99
2017-10-14T07:11:13.693Z,34.56
2017-10-14T07:12:14.077Z,34.18
2017-10-14T07:13:13.657Z,34.94
2017-10-14T07:14:13.976Z,34.66
2017-10-14T07:15:13.968Z,35.63
2017-10-14T07:16:13.616Z,35.44
2017-10-14T07:17:13.936Z,35.92
2017-10-14T07:18:13.925Z,36.02
2017-10-14T07:20:13.909Z,36.11
2017-10-14T07:21:13.554Z,36.02
2017-10-14T07:22:13.549Z,36.69
2017-10-14T07:23:13.529Z,37.36
2017-10-14T07:24:13.517Z,37.45
2017-10-14T07:25:13.502Z,37.45
2017-10-14T07:26:13.832Z,37.74
2017-10-14T07:27:13.812Z,37.74
2017-10-14T07:28:13.462Z,37.36
2017-10-14T07:29:13.781Z,37.93
2017-10-14T07:30:13.770Z,37.93
2017-10-14T07:31:13.428Z,38.22
2017-10-14T07:32:13.410Z,38.22
2017-10-14T07:33:13.398Z,38.7
2017-10-14T07:34:13.728Z,38.89
2017-10-14T07:35:13.706Z,38.7
2017-10-14T07:36:13.693Z,39.08
2017-10-14T07:37:13.349Z,40.81
2017-10-14T07:38:13.684Z,41
2017-10-14T07:39:13.323Z,41.5
2017-10-14T07:40:13.655Z,41.88
2017-10-14T07:41:13.298Z,41.78
2017-10-14T07:42:13.287Z,42.05
2017-10-14T07:43:13.271Z,42.84
2017-10-14T07:44:13.259Z,42.74
2017-10-14T07:45:13.582Z,43.7
2017-10-14T07:46:13.564Z,44.09
2017-10-14T07:47:13.563Z,44.09
2017-10-14T07:48:13.546Z,44.47
2017-10-14T07:49:13.196Z,45.33
2017-10-14T07:50:13.182Z,46.39
2017-10-14T07:51:13.169Z,46.19
2017-10-14T07:52:13.158Z,46.39
2017-10-14T07:53:13.484Z,46.29
2017-10-14T07:54:13.132Z,46.39
2017-10-14T07:55:13.457Z,47.92
2017-10-14T07:56:13.442Z,47.53
2017-10-14T07:57:13.430Z,47.37
2017-10-14T07:58:13.419Z,48.04
2017-10-14T07:59:13.071Z,48.9
2017-10-14T08:00:13.403Z,50.43
2017-10-14T08:01:13.377Z,52.64
2017-10-14T08:02:13.036Z,54.46
2017-10-14T08:03:13.021Z,58.11
2017-10-14T08:04:13.350Z,60.92
2017-10-14T08:05:13.004Z,63.03
2017-10-14T08:06:13.320Z,63.12
2017-10-14T08:07:13.308Z,61.69
2017-10-14T08:08:13.297Z,63.7
2017-10-14T08:09:13.286Z,64.56
2017-10-14T08:10:12.938Z,63.03
2017-10-14T08:11:12.943Z,63.32
2017-10-14T08:12:13.248Z,64.56
2017-10-14T08:13:12.900Z,62.93
2017-10-14T08:14:12.891Z,63.42
2017-10-14T08:15:13.031Z,63.03
2017-10-14T08:16:12.865Z,63.22
2017-10-14T08:17:13.185Z,62.74
2017-10-14T08:18:12.842Z,63.79
2017-10-14T08:19:13.163Z,65.91
2017-10-14T08:20:13.149Z,67.19
2017-10-14T08:21:12.809Z,67
2017-10-14T08:22:13.128Z,67
2017-10-14T08:23:13.118Z,67.09
2017-10-14T08:24:13.107Z,66.9
2017-10-14T08:25:12.961Z,66.71
2017-10-14T08:26:12.747Z,66.61
2017-10-14T08:27:12.736Z,69.11
2017-10-14T08:28:13.063Z,71.8
2017-10-14T08:29:12.714Z,71.7
2017-10-14T08:30:13.032Z,70.36
2017-10-14T08:31:13.028Z,69.01
2017-10-14T08:32:13.016Z,71.03
2017-10-14T08:33:12.666Z,71.03
2017-10-14T08:34:12.653Z,70.74
2017-10-14T08:35:12.993Z,70.07
2017-10-14T08:36:12.633Z,69.78
2017-10-14T08:37:12.618Z,70.36
2017-10-14T08:38:12.940Z,71.12
2017-10-14T08:39:12.928Z,71.22
2017-10-14T08:40:12.925Z,71.31
2017-10-14T08:41:12.575Z,73.14
2017-10-14T08:42:12.893Z,73.04
2017-10-14T08:43:12.888Z,72.85
2017-10-14T08:44:12.874Z,73.14
2017-10-14T08:45:12.528Z,72.18
2017-10-14T08:46:12.854Z,72.37
2017-10-14T08:47:12.836Z,74.19
2017-10-14T08:48:12.830Z,74.29
2017-10-14T08:49:12.480Z,74.58
2017-10-14T08:50:12.802Z,72.85
2017-10-14T08:51:12.459Z,73.72
2017-10-14T08:52:12.781Z,73.24
2017-10-14T08:53:12.436Z,73.33
2017-10-14T08:54:12.426Z,72.5
2017-10-14T08:55:12.413Z,71.73
2017-10-14T08:56:12.743Z,71.45
2017-10-14T08:57:12.727Z,75.87
2017-10-14T08:58:12.719Z,75.29
2017-10-14T08:59:12.367Z,78.45
2017-10-14T09:00:12.702Z,79.03
2017-10-14T09:01:12.343Z,80.19
2017-10-14T09:02:12.666Z,76.54
2017-10-14T09:03:12.322Z,76.15
2017-10-14T09:04:12.652Z,75.67
2017-10-14T09:05:12.637Z,73.27
2017-10-14T09:06:12.289Z,74.9
2017-10-14T09:07:12.617Z,76.73
2017-10-14T09:08:12.605Z,76.25
2017-10-14T09:09:12.634Z,73.27
2017-10-14T09:10:12.242Z,74.52
2017-10-14T09:11:12.231Z,75.87
2017-10-14T09:12:12.563Z,77.31
2017-10-14T09:13:12.542Z,78.17
2017-10-14T09:14:12.214Z,75.67
2017-10-14T09:15:12.188Z,76.96
2017-10-14T09:16:12.178Z,78.02
2017-10-14T09:17:12.498Z,78.88
2017-10-14T09:18:12.486Z,81.67
2017-10-14T09:19:12.145Z,82.15
2017-10-14T09:20:12.467Z,81.28
2017-10-14T09:21:12.452Z,83.78
2017-10-14T09:22:12.442Z,81.67
2017-10-14T09:23:12.435Z,82.24
2017-10-14T09:24:12.119Z,81.19
2017-10-14T09:25:12.081Z,81.38
2017-10-14T09:26:12.074Z,81.19
2017-10-14T09:27:12.388Z,83.4
2017-10-14T09:28:12.381Z,82.53
2017-10-14T09:29:12.035Z,85.36
2017-10-14T09:30:12.036Z,86.61
2017-10-14T09:31:12.349Z,87.19
2017-10-14T09:32:12.337Z,87.19
2017-10-14T09:33:12.328Z,88.63
2017-10-14T09:34:11.990Z,88.53
2017-10-14T09:35:11.972Z,88.53
2017-10-14T09:36:11.965Z,89.98
2017-10-14T09:37:12.285Z,90.26
2017-10-14T09:38:12.272Z,86.99
2017-10-14T09:39:11.935Z,87.96
2017-10-14T09:40:11.918Z,87.19
2017-10-14T09:41:12.257Z,84.98
2017-10-14T09:42:11.896Z,85.65
2017-10-14T09:43:12.231Z,86.22
2017-10-14T09:44:12.221Z,86.22
2017-10-14T09:45:12.202Z,86.22
2017-10-14T09:46:11.876Z,87.48
2017-10-14T09:47:12.192Z,87.09
2017-10-14T09:48:12.172Z,91.32
2017-10-14T09:49:11.824Z,91.56
2017-10-14T09:50:11.812Z,91.75
2017-10-14T09:51:12.142Z,91.75
2017-10-14T09:52:12.137Z,94.45
2017-10-14T09:53:11.789Z,93.82
2017-10-14T09:54:12.120Z,93.38
2017-10-14T09:55:11.770Z,93.48
2017-10-14T09:56:11.756Z,94.64
2017-10-14T09:57:11.743Z,92.81
2017-10-14T09:58:12.073Z,92.71
2017-10-14T09:59:11.734Z,93.19
2017-10-14T10:00:12.068Z,92.81
2017-10-14T10:01:11.701Z,92.71
2017-10-14T10:02:11.691Z,91.36
2017-10-14T10:03:11.682Z,91.94
2017-10-14T10:04:11.674Z,93.58
2017-10-14T10:05:11.659Z,91.46
2017-10-14T10:06:11.650Z,91.27
2017-10-14T10:07:11.639Z,93.29
2017-10-14T10:08:11.625Z,94.06
2017-10-14T10:09:11.955Z,93.87
2017-10-14T10:10:11.941Z,95.31
2017-10-14T10:11:11.932Z,93.87
2017-10-14T10:12:11.921Z,93.72
2017-10-14T10:13:11.587Z,95.26
2017-10-14T10:14:11.909Z,93.62
2017-10-14T10:15:11.891Z,95.17
2017-10-14T10:16:11.881Z,96.89
2017-10-14T10:17:11.536Z,98.34
2017-10-14T10:18:11.860Z,99.99
2017-10-14T10:19:11.849Z,99.11
2017-10-14T10:20:11.510Z,99.69
2017-10-14T10:21:11.498Z,98.92
2017-10-14T10:22:11.821Z,99.99
2017-10-14T10:23:11.483Z,99.3
2017-10-14T10:24:11.807Z,99.99
2017-10-14T10:25:11.666Z,99.99
2017-10-14T10:26:11.789Z,99.4
2017-10-14T10:27:11.786Z,99.49
2017-10-14T10:28:11.431Z,99.99
2017-10-14T10:29:11.427Z,99.99
2017-10-14T10:30:11.754Z,99.99
2017-10-14T10:31:11.748Z,99.99
2017-10-14T10:32:11.392Z,99.99
2017-10-14T10:33:11.715Z,99.99
2017-10-14T10:34:11.376Z,99.99
2017-10-14T10:35:11.364Z,99.99
2017-10-14T10:36:11.688Z,99.99
2017-10-14T10:37:11.679Z,99.99
2017-10-14T10:38:11.337Z,99.99
2017-10-14T10:39:11.327Z,99.99
2017-10-14T10:40:11.671Z,99.99
2017-10-14T10:41:11.308Z,99.99
2017-10-14T10:42:11.297Z,99.99
2017-10-14T10:43:11.623Z,99.99
2017-10-14T10:44:11.277Z,99.99
2017-10-14T10:45:11.270Z,99.99
2017-10-14T10:46:11.600Z,99.99
2017-10-14T10:47:11.587Z,99.99
2017-10-14T10:48:11.241Z,99.99
2017-10-14T10:49:11.569Z,99.99
2017-10-14T10:50:11.228Z,99.99
2017-10-14T10:51:11.217Z,99.99
2017-10-14T10:52:11.538Z,99.99
2017-10-14T10:53:11.539Z,99.99
2017-10-14T10:54:11.239Z,99.99
2017-10-14T10:55:11.514Z,99.99
2017-10-14T10:56:11.177Z,99.99
2017-10-14T10:57:11.166Z,99.99
2017-10-14T10:58:11.157Z,99.99
2017-10-14T10:59:11.480Z,99.99
2017-10-14T11:00:11.475Z,99.99
2017-10-14T11:01:11.128Z,99.99
2017-10-14T11:02:11.455Z,99.99
2017-10-14T11:03:11.444Z,99.99
2017-10-14T11:04:11.105Z,99.99
2017-10-14T11:05:11.098Z,99.99
2017-10-14T11:06:11.440Z,99.99
2017-10-14T11:07:11.435Z,99.99
2017-10-14T11:08:11.417Z,99.99
2017-10-14T11:09:11.420Z,99.99
2017-10-14T11:10:11.412Z,99.99
2017-10-14T11:11:11.055Z,99.99
2017-10-14T11:12:11.394Z,99.99
2017-10-14T11:13:11.393Z,99.99
2017-10-14T11:14:11.370Z,99.99
2017-10-14T11:15:11.044Z,99.99
2017-10-14T11:16:11.377Z,99.99
2017-10-14T11:17:11.015Z,99.99
2017-10-14T11:18:10.992Z,99.99
2017-10-14T11:19:11.330Z,99.99
2017-10-14T11:20:10.974Z,99.99
2017-10-14T11:21:11.307Z,99.99
2017-10-14T11:22:10.963Z,99.99
2017-10-14T11:23:11.280Z,99.99
2017-10-14T11:24:11.279Z,99.99
2017-10-14T11:25:10.937Z,99.99
2017-10-14T11:26:11.256Z,99.99
2017-10-14T11:27:11.251Z,99.99
2017-10-14T11:28:11.242Z,99.99
2017-10-14T11:29:11.276Z,99.99
2017-10-14T11:30:11.249Z,99.99
2017-10-14T11:31:11.273Z,99.99
2017-10-14T11:32:11.251Z,99.99
2017-10-14T11:33:11.239Z,99.99
2017-10-14T11:34:10.886Z,99.99
2017-10-14T11:35:11.195Z,99.99
2017-10-14T11:36:11.217Z,99.99
2017-10-14T11:37:10.873Z,99.99
2017-10-14T11:38:11.204Z,99.99
2017-10-14T11:39:10.843Z,99.99
2017-10-14T11:40:11.225Z,99.99
2017-10-14T11:41:11.186Z,99.99
2017-10-14T11:42:11.167Z,99.99
2017-10-14T11:43:10.834Z,99.99
2017-10-14T11:44:10.825Z,99.99
2017-10-14T11:45:11.173Z,99.99
2017-10-14T11:46:11.139Z,99.99
2017-10-14T11:47:11.169Z,99.99
2017-10-14T11:48:11.140Z,99.99
2017-10-14T11:49:11.150Z,99.99
2017-10-14T11:50:10.918Z,99.99
2017-10-14T11:51:11.151Z,99.99
2017-10-14T11:52:10.793Z,99.99
2017-10-14T11:53:11.084Z,99.99
2017-10-14T11:54:10.752Z,99.99
2017-10-14T11:55:11.081Z,99.99
2017-10-14T11:56:10.726Z,99.99
2017-10-14T11:57:11.059Z,99.99
2017-10-14T11:58:11.080Z,99.99
2017-10-14T11:59:11.043Z,99.99
2017-10-14T12:00:10.707Z,99.99
2017-10-14T12:01:11.043Z,99.99
2017-10-14T12:02:11.034Z,99.99
2017-10-14T12:03:11.032Z,99.99
2017-10-14T12:04:11.032Z,99.99
2017-10-14T12:05:11.040Z,99.99
2017-10-14T12:06:11.023Z,99.99
2017-10-14T12:07:10.681Z,99.99
2017-10-14T12:08:11.033Z,99.99
2017-10-14T12:09:11.029Z,99.99
2017-10-14T12:10:10.705Z,99.99
2017-10-14T12:11:11.027Z,99.99
2017-10-14T12:12:10.711Z,99.99
2017-10-14T12:13:10.679Z,99.99
2017-10-14T12:14:11.040Z,99.99
2017-10-14T12:15:10.701Z,99.99
2017-10-14T12:16:10.703Z,99.9
2017-10-14T12:17:11.024Z,97.22
2017-10-14T12:18:10.706Z,97.81
2017-10-14T12:19:11.010Z,99.99
2017-10-14T12:20:11.013Z,99.99
2017-10-14T12:21:10.685Z,95.97
2017-10-14T12:22:10.685Z,96.11
2017-10-14T12:23:11.008Z,92.32
2017-10-14T12:24:10.672Z,91.15
2017-10-14T12:25:11.005Z,94.6
2017-10-14T12:26:10.742Z,98.88
2017-10-14T12:27:10.679Z,96.89
2017-10-14T12:28:10.683Z,94.46
2017-10-14T12:29:11.010Z,91.78
2017-10-14T12:30:10.678Z,89.25
2017-10-14T12:31:11.070Z,89.54
2017-10-14T12:32:11.017Z,89.84
2017-10-14T12:33:11.023Z,88.81
2017-10-14T12:34:11.026Z,86.67
2017-10-14T12:35:11.029Z,87.7
2017-10-14T12:36:11.033Z,86.87
2017-10-14T12:37:11.026Z,85.66
2017-10-14T12:38:11.032Z,88.57
2017-10-14T12:39:11.028Z,89.15
2017-10-14T12:40:10.698Z,89.45
2017-10-14T12:41:11.046Z,87.74
2017-10-14T12:42:11.035Z,88.66
2017-10-14T12:43:11.037Z,85.88
2017-10-14T12:44:10.705Z,82.96
2017-10-14T12:45:10.712Z,83.68
2017-10-14T12:46:10.713Z,81.54
2017-10-14T12:47:10.713Z,82.6
2017-10-14T12:48:11.054Z,80.41
2017-10-14T12:49:11.063Z,82.9
2017-10-14T12:50:11.059Z,80.51
2017-10-14T12:51:10.781Z,82.22
2017-10-14T12:52:11.066Z,84.07
2017-10-14T12:53:10.735Z,81.57
2017-10-14T12:54:11.072Z,82.65
2017-10-14T12:55:11.077Z,79.92
2017-10-14T12:56:10.740Z,80.9